createdAt,value
2023-05-24T00:02:21.671Z,27.33
2023-05-24T00:04:49.787Z,27.33
2023-05-24T00:07:17.475Z,26.98
2023-05-24T00:09:45.051Z,27.08
2023-05-24T00:12:12.667Z,25.15
2023-05-24T00:14:40.251Z,24.95
2023-05-24T00:17:07.739Z,24.10
2023-05-24T00:19:38.585Z,24.90
2023-05-24T00:22:06.295Z,23.95
2023-05-24T00:24:33.873Z,24.38
2023-05-24T00:27:01.401Z,23.77
2023-05-24T00:29:30.790Z,25.27
2023-05-24T00:32:01.038Z,23.75
2023-05-24T00:34:28.721Z,25.70
2023-05-24T00:36:57.379Z,27.05
2023-05-24T00:39:24.974Z,26.08
2023-05-24T00:41:52.713Z,24.88
2023-05-24T00:44:20.321Z,25.40
2023-05-24T00:46:49.112Z,24.85
2023-05-24T00:49:16.786Z,25.00
2023-05-24T00:51:46.271Z,26.40
2023-05-24T00:54:15.416Z,25.45
2023-05-24T00:56:43.795Z,29.73
2023-05-24T00:59:11.444Z,29.50
2023-05-24T01:01:39.413Z,29.40
2023-05-24T01:04:07.773Z,29.27
2023-05-24T01:07:08.083Z,28.30
2023-05-24T01:09:58.118Z,29.10
2023-05-24T01:12:51.465Z,27.85
2023-05-24T01:15:28.727Z,34.00
2023-05-24T01:18:06.406Z,29.15
2023-05-24T01:20:35.410Z,32.15
2023-05-24T01:23:08.322Z,28.73
2023-05-24T01:25:42.303Z,34.25
2023-05-24T01:28:12.800Z,35.50
2023-05-24T01:30:42.280Z,36.13
2023-05-24T01:33:10.375Z,34.22
2023-05-24T01:35:41.609Z,35.85
2023-05-24T01:38:11.362Z,36.60
2023-05-24T01:40:40.681Z,36.33
2023-05-24T01:43:08.261Z,35.75
2023-05-24T01:45:48.973Z,31.38
2023-05-24T01:48:29.574Z,33.78
2023-05-24T01:51:01.125Z,31.67
2023-05-24T01:53:35.114Z,26.35
2023-05-24T01:56:06.002Z,29.35
2023-05-24T01:58:34.977Z,29.67
2023-05-24T02:01:03.532Z,28.27
2023-05-24T02:03:32.095Z,25.88
2023-05-24T02:05:59.661Z,24.20
2023-05-24T02:08:27.178Z,22.85
2023-05-24T02:10:54.806Z,24.52
2023-05-24T02:13:22.545Z,23.38
2023-05-24T02:15:50.258Z,25.00
2023-05-24T02:18:18.985Z,25.40
2023-05-24T02:20:47.311Z,25.20
2023-05-24T02:23:14.930Z,27.55
2023-05-24T02:25:42.441Z,26.52
2023-05-24T02:28:10.362Z,26.27
2023-05-24T02:30:38.789Z,25.67
2023-05-24T02:33:07.001Z,25.15
2023-05-24T02:35:34.732Z,24.92
2023-05-24T02:38:04.042Z,25.83
2023-05-24T02:40:31.648Z,26.45
2023-05-24T02:42:59.211Z,24.95
2023-05-24T02:45:26.730Z,25.80
2023-05-24T02:47:54.227Z,26.00
2023-05-24T02:50:21.749Z,26.45
2023-05-24T02:52:49.351Z,25.30
2023-05-24T02:55:16.868Z,26.10
2023-05-24T02:57:44.543Z,25.27
2023-05-24T03:00:12.873Z,26.10
2023-05-24T03:02:42.898Z,25.45
2023-05-24T03:05:10.635Z,26.48
2023-05-24T03:07:38.167Z,25.45
2023-05-24T03:10:07.224Z,25.30
2023-05-24T03:12:34.828Z,24.23
2023-05-24T03:15:02.497Z,24.50
2023-05-24T03:17:31.964Z,23.65
2023-05-24T03:20:00.409Z,23.73
2023-05-24T03:22:31.339Z,23.95
2023-05-24T03:24:58.949Z,24.58
2023-05-24T03:27:26.648Z,24.23
2023-05-24T03:29:55.087Z,23.17
2023-05-24T03:32:26.366Z,23.52
2023-05-24T03:34:53.960Z,24.50
2023-05-24T03:37:21.670Z,23.67
2023-05-24T03:39:49.280Z,24.15
2023-05-24T03:42:35.034Z,23.13
2023-05-24T03:45:02.585Z,23.27
2023-05-24T03:47:32.367Z,23.52
2023-05-24T03:50:00.131Z,23.65
2023-05-24T03:52:27.720Z,22.23
2023-05-24T03:54:55.412Z,22.48
2023-05-24T03:57:22.891Z,22.25
2023-05-24T03:59:50.418Z,22.45
2023-05-24T04:02:17.996Z,20.40
2023-05-24T04:04:46.159Z,22.00
2023-05-24T04:07:15.739Z,22.48
2023-05-24T04:09:43.754Z,20.88
2023-05-24T04:12:12.114Z,20.55
2023-05-24T04:14:42.364Z,20.55
2023-05-24T04:17:10.318Z,20.80
2023-05-24T04:19:38.019Z,19.90
2023-05-24T04:22:05.850Z,20.60
2023-05-24T04:24:33.435Z,20.55
2023-05-24T04:27:01.039Z,20.45
2023-05-24T04:29:28.908Z,20.05
2023-05-24T04:31:56.758Z,19.05
2023-05-24T04:34:25.878Z,18.52
2023-05-24T04:36:53.404Z,17.02
2023-05-24T04:39:21.152Z,19.00
2023-05-24T04:41:51.451Z,17.73
2023-05-24T04:44:19.637Z,18.13
2023-05-24T04:46:47.092Z,17.05
2023-05-24T04:49:14.640Z,16.17
2023-05-24T04:51:42.393Z,16.20
2023-05-24T04:54:10.120Z,15.88
2023-05-24T04:56:39.069Z,15.65
2023-05-24T04:59:07.802Z,15.77
2023-05-24T05:01:35.483Z,14.95
2023-05-24T05:04:06.790Z,15.70
2023-05-24T05:06:38.985Z,15.85
2023-05-24T05:09:10.806Z,15.85
2023-05-24T05:11:38.367Z,14.73
2023-05-24T05:14:06.703Z,15.35
2023-05-24T05:16:34.345Z,14.73
2023-05-24T05:19:04.967Z,15.85
2023-05-24T05:21:36.955Z,15.10
2023-05-24T05:24:04.482Z,14.95
2023-05-24T05:26:32.040Z,15.57
2023-05-24T05:28:59.577Z,14.60
2023-05-24T05:31:27.128Z,14.48
2023-05-24T05:33:54.620Z,14.38
2023-05-24T05:36:22.105Z,14.50
2023-05-24T05:38:49.637Z,14.60
2023-05-24T05:41:18.330Z,14.50
2023-05-24T05:43:46.143Z,13.82
2023-05-24T05:46:15.955Z,13.68
2023-05-24T05:48:45.668Z,13.73
2023-05-24T05:51:14.382Z,14.20
2023-05-24T05:53:41.966Z,13.00
2023-05-24T05:56:09.494Z,13.70
2023-05-24T05:58:39.158Z,13.23
2023-05-24T06:01:06.629Z,13.23
2023-05-24T06:03:34.512Z,13.40
2023-05-24T06:06:02.317Z,13.10
2023-05-24T06:08:35.365Z,12.98
2023-05-24T06:11:03.629Z,12.68
2023-05-24T06:13:33.205Z,12.32
2023-05-24T06:16:01.597Z,12.40
2023-05-24T06:18:30.833Z,11.48
2023-05-24T06:20:58.370Z,12.15
2023-05-24T06:23:26.070Z,11.85
2023-05-24T06:25:53.513Z,11.85
2023-05-24T06:28:21.111Z,11.75
2023-05-24T06:30:48.706Z,11.93
2023-05-24T06:33:16.541Z,11.63
2023-05-24T06:35:44.153Z,11.90
2023-05-24T06:38:11.744Z,12.00
2023-05-24T06:40:39.462Z,11.25
2023-05-24T06:43:07.161Z,11.20
2023-05-24T06:45:34.717Z,11.15
2023-05-24T06:48:02.605Z,11.90
2023-05-24T06:50:30.249Z,11.52
2023-05-24T06:52:57.790Z,11.85
2023-05-24T06:55:25.280Z,12.30
2023-05-24T06:57:52.791Z,11.75
2023-05-24T07:00:20.982Z,12.02
2023-05-24T07:02:48.545Z,11.73
2023-05-24T07:05:16.307Z,10.77
2023-05-24T07:07:44.330Z,12.10
2023-05-24T07:10:12.601Z,11.23
2023-05-24T07:12:40.237Z,10.98
2023-05-24T07:15:09.045Z,11.90
2023-05-24T07:17:36.841Z,11.63
2023-05-24T07:20:07.659Z,10.25
2023-05-24T07:22:35.228Z,11.23
2023-05-24T07:25:03.301Z,11.05
2023-05-24T07:27:31.015Z,9.90
2023-05-24T07:29:58.990Z,10.05
2023-05-24T07:32:27.218Z,10.10
2023-05-24T07:34:55.634Z,9.82
2023-05-24T07:37:24.909Z,9.77
2023-05-24T07:39:52.546Z,9.98
2023-05-24T07:42:21.024Z,10.43
2023-05-24T07:44:48.574Z,10.60
2023-05-24T07:47:16.222Z,10.88
2023-05-24T07:49:43.735Z,10.98
2023-05-24T07:52:11.273Z,13.63
2023-05-24T07:54:38.753Z,12.13
2023-05-24T07:57:09.311Z,12.48
2023-05-24T07:59:37.131Z,11.45
2023-05-24T08:02:05.965Z,11.98
2023-05-24T08:04:33.710Z,13.07
2023-05-24T08:07:03.110Z,11.90
2023-05-24T08:09:34.053Z,11.70
2023-05-24T08:12:02.693Z,12.55
2023-05-24T08:14:30.329Z,11.52
2023-05-24T08:16:58.030Z,11.38
2023-05-24T08:19:25.630Z,11.70
2023-05-24T08:21:53.526Z,11.82
2023-05-24T08:24:21.352Z,11.60
2023-05-24T08:26:50.155Z,12.25
2023-05-24T08:29:18.054Z,12.15
2023-05-24T08:31:45.568Z,11.35
2023-05-24T08:34:14.013Z,11.55
2023-05-24T08:36:44.089Z,11.85
2023-05-24T08:39:11.758Z,12.05
2023-05-24T08:41:39.544Z,12.45
2023-05-24T08:44:10.375Z,11.48
2023-05-24T08:46:39.579Z,11.00
2023-05-24T08:49:09.613Z,11.57
2023-05-24T08:51:38.877Z,12.75
2023-05-24T08:54:07.897Z,11.93
2023-05-24T08:56:35.757Z,11.60
2023-05-24T08:59:03.356Z,12.43
2023-05-24T09:01:32.817Z,12.50
2023-05-24T09:04:05.108Z,13.73
2023-05-24T09:06:33.751Z,12.18
2023-05-24T09:09:04.189Z,12.77
2023-05-24T09:11:33.067Z,13.00
2023-05-24T09:14:01.080Z,12.80
2023-05-24T09:16:28.785Z,13.00
2023-05-24T09:18:56.700Z,12.77
2023-05-24T09:21:25.458Z,12.95
2023-05-24T09:23:54.524Z,12.43
2023-05-24T09:26:22.466Z,12.48
2023-05-24T09:28:51.679Z,12.77
2023-05-24T09:31:19.285Z,12.60
2023-05-24T09:33:49.678Z,12.90
2023-05-24T09:36:17.815Z,13.27
2023-05-24T09:38:45.383Z,13.20
2023-05-24T09:41:13.209Z,12.98
2023-05-24T09:43:50.460Z,13.38
2023-05-24T09:46:22.101Z,13.02
2023-05-24T09:48:59.974Z,13.43
2023-05-24T09:51:27.558Z,14.98
2023-05-24T09:53:58.214Z,13.50
2023-05-24T09:56:25.846Z,13.93
2023-05-24T09:58:55.218Z,16.42
2023-05-24T10:01:25.758Z,14.18
2023-05-24T10:03:55.697Z,15.02
2023-05-24T10:06:24.310Z,20.48
2023-05-24T10:08:52.660Z,20.13
2023-05-24T10:11:20.604Z,15.20
2023-05-24T10:13:51.450Z,15.50
2023-05-24T10:16:19.166Z,17.25
2023-05-24T10:18:46.725Z,15.50
2023-05-24T10:21:14.497Z,15.00
2023-05-24T10:23:44.928Z,15.50
2023-05-24T10:26:14.737Z,14.82
2023-05-24T10:28:55.376Z,14.63
2023-05-24T10:31:28.577Z,16.10
2023-05-24T10:34:06.506Z,15.18
2023-05-24T10:36:35.426Z,15.63
2023-05-24T10:39:03.825Z,15.32
2023-05-24T10:41:40.143Z,14.52
2023-05-24T10:44:12.813Z,14.82
2023-05-24T10:47:12.507Z,14.63
2023-05-24T10:50:05.434Z,15.15
2023-05-24T10:52:37.269Z,15.10
2023-05-24T10:55:09.976Z,16.05
2023-05-24T10:57:39.045Z,15.13
2023-05-24T11:03:03.230Z,15.02
2023-05-24T11:05:51.005Z,16.83
2023-05-24T11:08:28.656Z,15.10
2023-05-24T11:13:44.327Z,15.63
2023-05-24T11:16:38.750Z,14.35
2023-05-24T11:19:20.453Z,14.45
2023-05-24T11:21:50.902Z,15.13
2023-05-24T11:24:19.084Z,14.60
2023-05-24T11:26:47.497Z,16.98
2023-05-24T11:29:21.296Z,14.98
2023-05-24T11:31:51.027Z,15.48
2023-05-24T11:34:22.132Z,16.27
2023-05-24T11:36:50.446Z,14.00
2023-05-24T11:39:18.572Z,15.18
2023-05-24T11:41:47.798Z,16.33
2023-05-24T11:44:20.023Z,14.77
2023-05-24T11:46:47.671Z,13.55
2023-05-24T11:49:18.699Z,14.50
2023-05-24T11:51:46.694Z,13.38
2023-05-24T11:54:14.533Z,13.18
2023-05-24T11:56:42.001Z,12.98
2023-05-24T11:59:17.229Z,13.68
2023-05-24T12:01:45.070Z,13.60
2023-05-24T12:04:13.223Z,13.88
2023-05-24T12:06:43.318Z,15.63
2023-05-24T12:09:13.646Z,14.10
2023-05-24T12:11:42.469Z,13.40
2023-05-24T12:14:14.703Z,14.55
2023-05-24T12:16:46.852Z,15.43
2023-05-24T12:21:57.109Z,13.23
2023-05-24T12:24:26.833Z,12.77
2023-05-24T12:27:03.956Z,12.82
2023-05-24T12:29:40.679Z,12.77
2023-05-24T12:32:13.889Z,12.90
2023-05-24T12:37:15.240Z,14.57
2023-05-24T12:42:15.572Z,13.18
2023-05-24T12:44:43.176Z,14.77
2023-05-24T12:47:10.921Z,15.73
2023-05-24T12:49:38.586Z,12.68
2023-05-24T12:52:06.724Z,12.95
2023-05-24T12:54:34.666Z,12.75
2023-05-24T12:57:05.500Z,12.85
2023-05-24T12:59:34.172Z,13.30
2023-05-24T13:02:02.522Z,12.40
2023-05-24T13:04:32.124Z,13.25
2023-05-24T13:07:00.558Z,15.25
2023-05-24T13:09:28.210Z,13.65
2023-05-24T13:11:56.103Z,12.60
2023-05-24T13:14:23.723Z,11.98
2023-05-24T13:16:51.578Z,11.63
2023-05-24T13:19:19.330Z,12.02
2023-05-24T13:21:46.866Z,13.65
2023-05-24T13:24:16.552Z,11.52
2023-05-24T13:26:45.718Z,12.27
2023-05-24T13:31:45.115Z,12.23
2023-05-24T13:34:13.122Z,11.93
2023-05-24T13:36:40.837Z,12.68
2023-05-24T13:41:42.598Z,12.90
2023-05-24T13:44:10.870Z,12.43
2023-05-24T13:46:39.250Z,11.98
2023-05-24T13:49:08.111Z,11.57
2023-05-24T13:51:36.068Z,11.30
2023-05-24T13:54:05.284Z,13.60
2023-05-24T13:56:34.460Z,19.40
2023-05-24T13:59:03.048Z,10.80
2023-05-24T14:01:31.445Z,11.07
2023-05-24T14:04:00.631Z,11.32
2023-05-24T14:06:28.344Z,10.73
2023-05-24T14:08:55.988Z,11.95
2023-05-24T14:11:25.094Z,10.30
2023-05-24T14:16:24.813Z,11.18
2023-05-24T14:18:52.521Z,10.90
2023-05-24T14:21:21.937Z,11.02
2023-05-24T14:23:50.417Z,10.98
2023-05-24T14:26:19.099Z,11.52
2023-05-24T14:28:47.198Z,11.02
2023-05-24T14:31:14.980Z,10.73
2023-05-24T14:33:42.509Z,10.60
2023-05-24T14:36:10.156Z,10.93
2023-05-24T14:38:37.724Z,11.20
2023-05-24T14:41:05.254Z,10.80
2023-05-24T14:43:32.837Z,12.90
2023-05-24T14:46:00.421Z,10.68
2023-05-24T14:48:28.049Z,10.70
2023-05-24T14:50:55.633Z,10.10
2023-05-24T14:53:23.132Z,9.25
2023-05-24T14:55:50.706Z,9.85
2023-05-24T14:58:18.932Z,9.25
2023-05-24T15:00:46.610Z,10.60
2023-05-24T15:03:15.186Z,10.27
2023-05-24T15:05:43.314Z,10.25
2023-05-24T15:08:11.799Z,10.55
2023-05-24T15:10:39.735Z,11.65
2023-05-24T15:13:07.322Z,12.85
2023-05-24T15:15:34.845Z,10.73
2023-05-24T15:18:02.575Z,11.00
2023-05-24T15:20:30.168Z,11.02
2023-05-24T15:22:57.816Z,10.80
2023-05-24T15:25:25.312Z,11.60
2023-05-24T15:27:53.142Z,9.52
2023-05-24T15:30:21.201Z,9.18
2023-05-24T15:32:48.742Z,9.73
2023-05-24T15:35:17.479Z,9.95
2023-05-24T15:37:46.071Z,8.82
2023-05-24T15:40:15.419Z,8.95
2023-05-24T15:42:43.053Z,9.05
2023-05-24T15:45:11.419Z,9.13
2023-05-24T15:47:40.554Z,8.63
2023-05-24T15:50:09.297Z,9.45
2023-05-24T15:52:37.341Z,8.50
2023-05-24T15:55:05.211Z,9.35
2023-05-24T15:57:32.784Z,9.20
2023-05-24T16:00:00.356Z,10.15
2023-05-24T16:02:28.278Z,10.07
2023-05-24T16:04:57.555Z,9.68
2023-05-24T16:07:25.207Z,9.63
2023-05-24T16:09:52.963Z,10.15
2023-05-24T16:12:21.056Z,9.55
2023-05-24T16:14:48.746Z,9.07
2023-05-24T16:17:16.486Z,9.52
2023-05-24T16:19:46.793Z,9.38
2023-05-24T16:22:14.409Z,9.35
2023-05-24T16:24:42.270Z,9.32
2023-05-24T16:27:10.065Z,9.85
2023-05-24T16:29:38.487Z,10.52
2023-05-24T16:32:07.792Z,9.30
2023-05-24T16:34:51.948Z,9.60
2023-05-24T16:37:23.017Z,10.18
2023-05-24T16:39:50.585Z,9.75
2023-05-24T16:42:18.168Z,10.15
2023-05-24T16:44:45.814Z,10.00
2023-05-24T16:47:13.482Z,10.63
2023-05-24T16:49:41.017Z,10.30
2023-05-24T16:52:08.834Z,10.27
2023-05-24T16:54:36.346Z,10.88
2023-05-24T16:57:04.045Z,10.20
2023-05-24T16:59:31.639Z,10.82
2023-05-24T17:01:59.348Z,11.23
2023-05-24T17:04:26.961Z,10.82
2023-05-24T17:06:54.451Z,10.55
2023-05-24T17:09:22.127Z,10.50
2023-05-24T17:11:51.015Z,10.73
2023-05-24T17:14:18.718Z,10.55
2023-05-24T17:16:46.277Z,10.70
2023-05-24T17:19:14.492Z,10.57
2023-05-24T17:21:42.338Z,10.45
2023-05-24T17:24:09.932Z,11.02
2023-05-24T17:26:39.343Z,10.70
2023-05-24T17:29:07.108Z,10.80
2023-05-24T17:31:34.652Z,10.07
2023-05-24T17:34:02.473Z,11.60
2023-05-24T17:36:33.774Z,10.93
2023-05-24T17:39:01.394Z,12.02
2023-05-24T17:41:28.955Z,11.48
2023-05-24T17:43:56.567Z,12.35
2023-05-24T17:46:24.206Z,11.43
2023-05-24T17:48:52.300Z,11.63
2023-05-24T17:51:19.969Z,12.10
2023-05-24T17:53:47.656Z,11.55
2023-05-24T17:56:15.308Z,11.05
2023-05-24T17:58:43.342Z,11.27
2023-05-24T18:01:12.374Z,11.90
2023-05-24T18:03:41.328Z,11.93
2023-05-24T18:06:09.695Z,11.70
2023-05-24T18:08:41.423Z,11.55
2023-05-24T18:11:09.825Z,12.25
2023-05-24T18:13:38.848Z,12.10
2023-05-24T18:16:13.615Z,11.35
2023-05-24T18:18:41.681Z,11.75
2023-05-24T18:21:10.121Z,12.80
2023-05-24T18:23:38.524Z,13.07
2023-05-24T18:26:10.772Z,13.85
2023-05-24T18:28:39.228Z,13.55
2023-05-24T18:31:16.570Z,13.32
2023-05-24T18:33:44.171Z,13.65
2023-05-24T18:36:12.994Z,14.57
2023-05-24T18:38:40.852Z,15.43
2023-05-24T18:41:12.562Z,15.65
2023-05-24T18:43:40.655Z,15.15
2023-05-24T18:46:09.403Z,15.85
2023-05-24T18:48:36.852Z,14.93
2023-05-24T18:51:04.701Z,17.08
2023-05-24T18:53:32.336Z,15.13
2023-05-24T18:56:00.032Z,16.13
2023-05-24T18:58:27.598Z,15.68
2023-05-24T19:00:55.384Z,14.82
2023-05-24T19:03:23.056Z,14.68
2023-05-24T19:05:50.705Z,16.60
2023-05-24T19:08:18.665Z,17.45
2023-05-24T19:10:46.421Z,14.32
2023-05-24T19:13:13.956Z,14.52
2023-05-24T19:15:42.005Z,17.13
2023-05-24T19:18:09.682Z,16.13
2023-05-24T19:20:37.547Z,17.95
2023-05-24T19:23:05.412Z,14.95
2023-05-24T19:25:40.605Z,15.18
2023-05-24T19:28:09.142Z,18.00
2023-05-24T19:30:37.913Z,16.63
2023-05-24T19:33:06.908Z,14.57
2023-05-24T19:35:34.938Z,15.15
2023-05-24T19:38:02.438Z,14.77
2023-05-24T19:40:30.060Z,14.50
2023-05-24T19:42:57.653Z,16.17
2023-05-24T19:45:25.312Z,15.15
2023-05-24T19:47:53.020Z,13.95
2023-05-24T19:50:20.648Z,13.30
2023-05-24T19:52:48.250Z,14.85
2023-05-24T19:55:15.857Z,14.85
2023-05-24T19:57:43.392Z,14.85
2023-05-24T20:00:12.741Z,17.40
2023-05-24T20:02:40.431Z,16.55
2023-05-24T20:05:09.217Z,15.57
2023-05-24T20:07:37.085Z,14.93
2023-05-24T20:10:05.802Z,16.33
2023-05-24T20:12:34.884Z,14.23
2023-05-24T20:15:02.549Z,14.50
2023-05-24T20:17:31.597Z,15.32
2023-05-24T20:19:59.245Z,13.50
2023-05-24T20:22:26.923Z,14.23
2023-05-24T20:24:54.363Z,18.73
2023-05-24T20:27:22.038Z,15.68
2023-05-24T20:29:49.532Z,16.40
2023-05-24T20:32:17.341Z,19.17
2023-05-24T20:34:44.984Z,17.00
2023-05-24T20:37:12.447Z,17.88
2023-05-24T20:39:39.953Z,16.50
2023-05-24T20:42:08.532Z,20.17
2023-05-24T20:44:36.303Z,17.70
2023-05-24T20:47:03.865Z,17.33
2023-05-24T20:49:31.478Z,18.42
2023-05-24T20:51:59.160Z,18.77
2023-05-24T20:54:27.100Z,18.02
2023-05-24T20:56:54.688Z,17.55
2023-05-24T20:59:22.350Z,16.13
2023-05-24T21:01:50.082Z,16.05
2023-05-24T21:04:17.708Z,16.63
2023-05-24T21:06:45.316Z,16.45
2023-05-24T21:09:13.013Z,15.77
2023-05-24T21:11:40.922Z,15.65
2023-05-24T21:14:08.540Z,16.75
2023-05-24T21:16:36.769Z,17.27
2023-05-24T21:19:04.400Z,17.23
2023-05-24T21:21:31.952Z,16.95
2023-05-24T21:23:59.491Z,17.55
2023-05-24T21:26:27.043Z,17.45
2023-05-24T21:28:54.636Z,18.00
2023-05-24T21:31:23.189Z,16.05
2023-05-24T21:33:50.813Z,16.98
2023-05-24T21:36:18.958Z,15.05
2023-05-24T21:38:46.699Z,15.65
2023-05-24T21:41:14.437Z,16.98
2023-05-24T21:43:43.060Z,15.45
2023-05-24T21:46:10.695Z,16.30
2023-05-24T21:48:38.301Z,16.80
2023-05-24T21:51:06.394Z,16.02
2023-05-24T21:53:35.377Z,20.15
2023-05-24T21:56:03.172Z,18.27
2023-05-24T21:58:31.004Z,17.50
2023-05-24T22:00:58.568Z,16.67
2023-05-24T22:03:26.464Z,17.33
2023-05-24T22:05:54.064Z,19.50
2023-05-24T22:08:21.704Z,18.60
2023-05-24T22:10:49.278Z,18.42
2023-05-24T22:13:16.838Z,18.45
2023-05-24T22:15:44.996Z,18.10
2023-05-24T22:18:17.706Z,18.27
2023-05-24T22:20:45.538Z,18.73
2023-05-24T22:23:14.867Z,18.67
2023-05-24T22:25:42.930Z,18.33
2023-05-24T22:28:10.935Z,17.50
2023-05-24T22:30:38.607Z,18.15
2023-05-24T22:33:06.568Z,18.42
2023-05-24T22:35:34.302Z,16.73
2023-05-24T22:38:02.029Z,17.90
2023-05-24T22:40:29.819Z,17.55
2023-05-24T22:42:57.443Z,16.38
2023-05-24T22:45:25.161Z,18.40
2023-05-24T22:47:54.430Z,17.40
2023-05-24T22:50:22.148Z,18.67
2023-05-24T22:52:49.886Z,17.77
2023-05-24T22:55:17.612Z,18.55
2023-05-24T22:57:45.342Z,17.83
2023-05-24T23:00:13.538Z,18.55
2023-05-24T23:02:41.267Z,16.42
2023-05-24T23:05:10.038Z,16.65
2023-05-24T23:07:38.471Z,18.75
2023-05-24T23:10:06.636Z,17.10
2023-05-24T23:12:34.813Z,17.30
2023-05-24T23:15:02.537Z,18.95
2023-05-24T23:17:31.614Z,18.67
2023-05-24T23:19:59.677Z,18.85
2023-05-24T23:22:27.429Z,18.33
2023-05-24T23:24:55.050Z,18.48
2023-05-24T23:27:22.860Z,19.75
2023-05-24T23:29:50.663Z,18.85
2023-05-24T23:32:18.348Z,19.08
2023-05-24T23:34:46.156Z,19.85
2023-05-24T23:37:14.021Z,19.40
2023-05-24T23:39:41.755Z,18.75
2023-05-24T23:42:09.455Z,18.67
2023-05-24T23:44:37.198Z,19.50
2023-05-24T23:47:05.178Z,20.30
2023-05-24T23:49:33.145Z,18.55
2023-05-24T23:52:00.908Z,19.40
2023-05-24T23:54:28.652Z,19.15
2023-05-24T23:56:56.493Z,18.23
2023-05-24T23:59:24.195Z,18.73
